Time;durP1;ratioP1;P1;durP2;ratioP2;P2;SDS_P1;SDS_P2;PMS_P1;PMS_P2;Temp;Humidity;BMP_temperature;BMP_pressure;BME280_temperature;BME280_humidity;BME280_pressure;Samples;Min_cycle;Max_cycle;Signal;HPM_P1;HPM_P2
2023/05/11 00:01:11;;;;;;;7.70;6.20;;;;;;;-128.00;-1.00;-1.00;105839;1255;1004921;-73
2023/05/11 00:03:37;;;;;;;8.40;5.90;;;;;;;-128.00;-1.00;-1.00;105828;1253;1004685;-73
2023/05/11 00:06:04;;;;;;;10.40;6.20;;;;;;;-128.00;-1.00;-1.00;105766;1253;1003382;-74
2023/05/11 00:08:31;;;;;;;9.10;5.80;;;;;;;-128.00;-1.00;-1.00;105775;1252;1004412;-74
2023/05/11 00:10:59;;;;;;;7.90;6.60;;;;;;;-128.00;-1.00;-1.00;105753;1253;1003913;-72
2023/05/11 00:13:26;;;;;;;10.00;6.10;;;;;;;-128.00;-1.00;-1.00;105782;1252;1004819;-73
2023/05/11 00:15:53;;;;;;;9.90;6.50;;;;;;;-128.00;-1.00;-1.00;105512;1253;1003917;-74
2023/05/11 00:18:20;;;;;;;8.50;6.50;;;;;;;-128.00;-1.00;-1.00;105809;1253;1004931;-73
2023/05/11 00:20:46;;;;;;;6.30;5.60;;;;;;;-128.00;-1.00;-1.00;105767;1253;1004933;-74
2023/05/11 00:23:13;;;;;;;7.40;6.30;;;;;;;-128.00;-1.00;-1.00;105690;1253;1003537;-74
2023/05/11 00:25:40;;;;;;;8.60;6.30;;;;;;;-128.00;-1.00;-1.00;105741;1253;1004915;-73
2023/05/11 00:28:06;;;;;;;10.00;6.60;;;;;;;-128.00;-1.00;-1.00;105556;1252;1003650;-74
2023/05/11 00:30:33;;;;;;;8.30;6.70;;;;;;;-128.00;-1.00;-1.00;105748;1252;1003909;-73
2023/05/11 00:33:00;;;;;;;9.00;6.30;;;;;;;-128.00;-1.00;-1.00;105788;1253;1004393;-72
2023/05/11 00:35:26;;;;;;;8.40;6.10;;;;;;;-128.00;-1.00;-1.00;105760;1253;1003784;-73
2023/05/11 00:37:52;;;;;;;10.00;6.50;;;;;;;-128.00;-1.00;-1.00;105472;1253;1004918;-73
2023/05/11 00:40:19;;;;;;;9.10;7.30;;;;;;;-128.00;-1.00;-1.00;105760;1253;1004540;-73
2023/05/11 00:42:45;;;;;;;9.60;6.80;;;;;;;-128.00;-1.00;-1.00;105468;1252;1004105;-72
2023/05/11 00:45:12;;;;;;;9.80;6.30;;;;;;;-128.00;-1.00;-1.00;105738;1254;1004574;-73
2023/05/11 00:47:39;;;;;;;9.10;6.80;;;;;;;-128.00;-1.00;-1.00;105713;1252;1004738;-73
2023/05/11 00:50:07;;;;;;;9.00;6.20;;;;;;;-128.00;-1.00;-1.00;105514;1253;1003967;-72
2023/05/11 00:52:33;;;;;;;9.30;6.40;;;;;;;-128.00;-1.00;-1.00;105485;1253;1004844;-74
2023/05/11 00:55:00;;;;;;;7.50;5.80;;;;;;;-128.00;-1.00;-1.00;105778;1253;1004115;-73
2023/05/11 00:57:27;;;;;;;8.40;6.90;;;;;;;-128.00;-1.00;-1.00;105774;1253;1004004;-73
2023/05/11 00:59:53;;;;;;;9.60;6.60;;;;;;;-128.00;-1.00;-1.00;105747;1255;1004210;-73
2023/05/11 01:02:20;;;;;;;8.70;7.20;;;;;;;-128.00;-1.00;-1.00;105761;1253;1003423;-72
2023/05/11 01:04:46;;;;;;;9.60;6.80;;;;;;;-128.00;-1.00;-1.00;105775;1252;1004919;-73
2023/05/11 01:07:22;;;;;;;10.50;6.10;;;;;;;-128.00;-1.00;-1.00;105779;1253;1004115;-73
2023/05/11 01:10:03;;;;;;;9.30;6.70;;;;;;;-128.00;-1.00;-1.00;105748;1253;1055310;-74
2023/05/11 01:12:35;;;;;;;;;;;;;;;-128.00;-1.00;-1.00;105749;1253;1059394;-73
2023/05/11 01:15:36;;;;;;;9.40;6.50;;;;;;;-128.00;-1.00;-1.00;105340;1257;1046193;-74
2023/05/11 01:18:11;;;;;;;10.60;7.30;;;;;;;-128.00;-1.00;-1.00;105746;1252;1046377;-74
2023/05/11 01:20:41;;;;;;;12.20;6.60;;;;;;;-128.00;-1.00;-1.00;105717;1253;1062914;-73
2023/05/11 01:23:42;;;;;;;8.70;6.50;;;;;;;-128.00;-1.00;-1.00;105715;1253;1055207;-73
2023/05/11 01:26:27;;;;;;;;;;;;;;;-128.00;-1.00;-1.00;105710;1251;1058922;-73
2023/05/11 01:29:28;;;;;;;9.00;6.90;;;;;;;-128.00;-1.00;-1.00;105769;1251;1045758;-73
2023/05/11 01:31:57;;;;;;;11.20;6.90;;;;;;;-128.00;-1.00;-1.00;105751;1252;1047317;-73
2023/05/11 01:34:29;;;;;;;11.30;7.40;;;;;;;-128.00;-1.00;-1.00;105764;1253;1061611;-73
2023/05/11 01:37:12;;;;;;;8.40;7.00;;;;;;;-128.00;-1.00;-1.00;105488;1253;1056556;-73
2023/05/11 01:40:11;;;;;;;8.40;7.40;;;;;;;-128.00;-1.00;-1.00;105697;1255;1059439;-73
2023/05/11 01:42:43;;;;;;;9.70;7.30;;;;;;;-128.00;-1.00;-1.00;105208;1259;1046425;-73
2023/05/11 01:45:11;;;;;;;9.50;7.20;;;;;;;-128.00;-1.00;-1.00;105222;1258;1046668;-73
2023/05/11 01:47:40;;;;;;;9.70;7.60;;;;;;;-128.00;-1.00;-1.00;105216;1260;1061990;-73
2023/05/11 01:50:08;;;;;;;8.30;6.80;;;;;;;-128.00;-1.00;-1.00;105080;1257;1004020;-73
2023/05/11 01:52:37;;;;;;;8.10;7.10;;;;;;;-128.00;-1.00;-1.00;105105;1260;1005429;-73
2023/05/11 01:55:06;;;;;;;8.90;6.90;;;;;;;-128.00;-1.00;-1.00;105174;1259;1045573;-73
2023/05/11 01:57:35;;;;;;;7.70;6.70;;;;;;;-128.00;-1.00;-1.00;105203;1258;1048285;-73
2023/05/11 02:00:34;;;;;;;12.90;7.10;;;;;;;-128.00;-1.00;-1.00;105220;1260;1062463;-72
2023/05/11 02:03:04;;;;;;;10.30;7.10;;;;;;;-128.00;-1.00;-1.00;105215;1262;1056199;-72
2023/05/11 02:05:32;;;;;;;;;;;;;;;-128.00;-1.00;-1.00;105116;1260;1058731;-73
2023/05/11 02:08:01;;;;;;;8.90;6.50;;;;;;;-128.00;-1.00;-1.00;105207;1258;1004908;-73
2023/05/11 02:10:28;;;;;;;10.10;7.40;;;;;;;-128.00;-1.00;-1.00;105207;1258;1048091;-72
2023/05/11 02:12:55;;;;;;;10.20;7.40;;;;;;;-128.00;-1.00;-1.00;105071;1259;1004461;-73
2023/05/11 02:15:24;;;;;;;10.00;6.80;;;;;;;-128.00;-1.00;-1.00;105250;1261;1003270;-75
2023/05/11 02:17:52;;;;;;;8.60;7.00;;;;;;;-128.00;-1.00;-1.00;105136;1259;1060221;-74
2023/05/11 02:20:19;;;;;;;10.40;7.00;;;;;;;-128.00;-1.00;-1.00;105379;1260;1003982;-73
2023/05/11 02:22:46;;;;;;;10.50;6.80;;;;;;;-128.00;-1.00;-1.00;105795;1252;1004577;-72
2023/05/11 02:25:15;;;;;;;10.80;6.90;;;;;;;-128.00;-1.00;-1.00;105421;1254;1003719;-73
2023/05/11 02:27:42;;;;;;;8.10;6.50;;;;;;;-128.00;-1.00;-1.00;105766;1252;1055718;-73
2023/05/11 02:30:09;;;;;;;8.50;6.30;;;;;;;-128.00;-1.00;-1.00;105425;1253;1004240;-73
2023/05/11 02:32:38;;;;;;;9.50;6.80;;;;;;;-128.00;-1.00;-1.00;105461;1260;1004183;-72
2023/05/11 02:35:10;;;;;;;9.10;7.10;;;;;;;-128.00;-1.00;-1.00;105376;1260;1047367;-72
2023/05/11 02:37:42;;;;;;;10.70;6.30;;;;;;;-128.00;-1.00;-1.00;105137;1255;1062797;-73
2023/05/11 02:40:18;;;;;;;10.70;6.70;;;;;;;-128.00;-1.00;-1.00;105478;1257;1055149;-72
2023/05/11 02:42:51;;;;;;;11.20;6.60;;;;;;;-128.00;-1.00;-1.00;105396;1257;1058973;-72
2023/05/11 02:45:18;;;;;;;9.40;6.70;;;;;;;-128.00;-1.00;-1.00;105235;1256;1045604;-73
2023/05/11 02:47:51;;;;;;;8.20;6.30;;;;;;;-128.00;-1.00;-1.00;105439;1256;1004078;-73
2023/05/11 02:50:19;;;;;;;8.80;5.70;;;;;;;-128.00;-1.00;-1.00;105483;1256;1061652;-73
2023/05/11 02:52:47;;;;;;;9.80;6.60;;;;;;;-128.00;-1.00;-1.00;105215;1255;1005364;-73
2023/05/11 02:55:17;;;;;;;11.10;7.10;;;;;;;-128.00;-1.00;-1.00;105450;1256;1004335;-72
2023/05/11 02:57:44;;;;;;;7.90;6.70;;;;;;;-128.00;-1.00;-1.00;105344;1256;1047705;-74
2023/05/11 03:00:11;;;;;;;9.90;6.50;;;;;;;-128.00;-1.00;-1.00;105461;1257;1003895;-73
2023/05/11 03:02:38;;;;;;;8.40;7.10;;;;;;;-128.00;-1.00;-1.00;105223;1256;1004696;-73
2023/05/11 03:05:05;;;;;;;7.50;6.40;;;;;;;-128.00;-1.00;-1.00;105459;1256;1004022;-73
2023/05/11 03:07:32;;;;;;;9.90;6.70;;;;;;;-128.00;-1.00;-1.00;105434;1257;1004247;-73
2023/05/11 03:10:00;;;;;;;9.50;6.00;;;;;;;-128.00;-1.00;-1.00;105574;1253;1004185;-73
2023/05/11 03:12:31;;;;;;;8.40;6.80;;;;;;;-128.00;-1.00;-1.00;105729;1253;1004972;-73
2023/05/11 03:14:59;;;;;;;7.70;6.20;;;;;;;-128.00;-1.00;-1.00;105735;1252;1060381;-73
2023/05/11 03:17:28;;;;;;;9.60;6.40;;;;;;;-128.00;-1.00;-1.00;105746;1252;1003946;-73
2023/05/11 03:19:56;;;;;;;11.70;6.20;;;;;;;-128.00;-1.00;-1.00;105306;1254;1059595;-73
2023/05/11 03:22:25;;;;;;;7.50;6.70;;;;;;;-128.00;-1.00;-1.00;105702;1253;1046648;-73
2023/05/11 03:24:52;;;;;;;11.10;6.60;;;;;;;-128.00;-1.00;-1.00;105698;1253;1005204;-73
2023/05/11 03:27:19;;;;;;;8.20;6.40;;;;;;;-128.00;-1.00;-1.00;105294;1254;1004093;-73
2023/05/11 03:29:47;;;;;;;6.70;6.00;;;;;;;-128.00;-1.00;-1.00;105672;1251;1003794;-74
2023/05/11 03:32:14;;;;;;;12.50;7.10;;;;;;;-128.00;-1.00;-1.00;105684;1251;1058706;-73
2023/05/11 03:34:40;;;;;;;10.00;7.00;;;;;;;-128.00;-1.00;-1.00;105673;1251;1004932;-73
2023/05/11 03:37:09;;;;;;;8.50;6.90;;;;;;;-128.00;-1.00;-1.00;105728;1251;1004519;-73
2023/05/11 03:39:38;;;;;;;8.00;6.80;;;;;;;-128.00;-1.00;-1.00;105703;1251;1062274;-73
2023/05/11 03:42:06;;;;;;;8.40;6.40;;;;;;;-128.00;-1.00;-1.00;105542;1257;1004959;-73
2023/05/11 03:44:33;;;;;;;9.00;6.50;;;;;;;-128.00;-1.00;-1.00;105732;1251;1004251;-72
2023/05/11 03:47:02;;;;;;;8.00;6.40;;;;;;;-128.00;-1.00;-1.00;105726;1251;1004055;-73
2023/05/11 03:49:29;;;;;;;9.00;7.30;;;;;;;-128.00;-1.00;-1.00;105776;1251;1047376;-73
2023/05/11 03:51:56;;;;;;;8.70;6.60;;;;;;;-128.00;-1.00;-1.00;105696;1251;1004962;-73
2023/05/11 03:54:23;;;;;;;7.10;6.00;;;;;;;-128.00;-1.00;-1.00;105728;1251;1004741;-73
2023/05/11 03:56:50;;;;;;;8.90;6.50;;;;;;;-128.00;-1.00;-1.00;105693;1251;1004300;-73
2023/05/11 03:59:17;;;;;;;10.00;6.50;;;;;;;-128.00;-1.00;-1.00;105650;1251;1004646;-73
2023/05/11 04:01:44;;;;;;;9.30;7.60;;;;;;;-128.00;-1.00;-1.00;105493;1251;1004368;-73
2023/05/11 04:04:11;;;;;;;9.20;6.50;;;;;;;-128.00;-1.00;-1.00;105730;1251;1004651;-74
2023/05/11 04:06:37;;;;;;;9.00;6.30;;;;;;;-128.00;-1.00;-1.00;105713;1251;1003768;-73
2023/05/11 04:09:03;;;;;;;8.30;6.50;;;;;;;-128.00;-1.00;-1.00;105702;1251;1003305;-73
2023/05/11 04:11:30;;;;;;;6.90;6.20;;;;;;;-128.00;-1.00;-1.00;105714;1251;1004722;-74
2023/05/11 04:13:56;;;;;;;8.20;7.20;;;;;;;-128.00;-1.00;-1.00;105729;1251;1003739;-73
2023/05/11 04:16:23;;;;;;;11.40;6.70;;;;;;;-128.00;-1.00;-1.00;105750;1251;1005034;-73
2023/05/11 04:18:49;;;;;;;8.70;6.80;;;;;;;-128.00;-1.00;-1.00;105749;1251;1004345;-73
2023/05/11 04:21:16;;;;;;;8.30;6.50;;;;;;;-128.00;-1.00;-1.00;105690;1251;1003684;-73
2023/05/11 04:23:42;;;;;;;12.50;7.00;;;;;;;-128.00;-1.00;-1.00;105708;1251;1004700;-74
2023/05/11 04:26:09;;;;;;;11.30;7.70;;;;;;;-128.00;-1.00;-1.00;105777;1251;1004160;-73
2023/05/11 04:28:35;;;;;;;9.30;7.10;;;;;;;-128.00;-1.00;-1.00;105766;1251;1004899;-73
2023/05/11 04:31:02;;;;;;;7.60;6.80;;;;;;;-128.00;-1.00;-1.00;105728;1251;1004386;-72
2023/05/11 04:33:28;;;;;;;7.70;6.80;;;;;;;-128.00;-1.00;-1.00;105681;1251;1004329;-73
2023/05/11 04:35:55;;;;;;;10.00;7.30;;;;;;;-128.00;-1.00;-1.00;105687;1251;1004951;-73
2023/05/11 04:38:21;;;;;;;8.80;7.10;;;;;;;-128.00;-1.00;-1.00;105730;1251;1004407;-73
2023/05/11 04:40:49;;;;;;;10.40;7.10;;;;;;;-128.00;-1.00;-1.00;105762;1251;1004081;-73
2023/05/11 04:43:16;;;;;;;9.00;6.70;;;;;;;-128.00;-1.00;-1.00;105707;1251;1003574;-73
2023/05/11 04:45:49;;;;;;;9.70;7.50;;;;;;;-128.00;-1.00;-1.00;105700;1251;1005276;-73
2023/05/11 04:48:16;;;;;;;8.90;7.80;;;;;;;-128.00;-1.00;-1.00;105676;1251;1044280;-73
2023/05/11 04:50:42;;;;;;;14.60;8.90;;;;;;;-128.00;-1.00;-1.00;105757;1251;1004767;-73
2023/05/11 04:53:09;;;;;;;12.20;7.40;;;;;;;-128.00;-1.00;-1.00;105752;1251;1003984;-75
2023/05/11 04:55:35;;;;;;;12.00;7.90;;;;;;;-128.00;-1.00;-1.00;105589;1251;1003992;-74
2023/05/11 04:58:09;;;;;;;10.80;7.70;;;;;;;-128.00;-1.00;-1.00;105679;1251;1058928;-74
2023/05/11 05:00:36;;;;;;;9.50;7.80;;;;;;;-128.00;-1.00;-1.00;105680;1251;1003579;-73
2023/05/11 05:03:03;;;;;;;13.50;7.80;;;;;;;-128.00;-1.00;-1.00;105731;1251;1003447;-74
2023/05/11 05:05:29;;;;;;;12.00;8.50;;;;;;;-128.00;-1.00;-1.00;105698;1251;1004152;-72
2023/05/11 05:07:56;;;;;;;10.80;8.20;;;;;;;-128.00;-1.00;-1.00;105674;1251;1007087;-73
2023/05/11 05:10:22;;;;;;;11.90;8.50;;;;;;;-128.00;-1.00;-1.00;105679;1251;1003438;-74
2023/05/11 05:12:49;;;;;;;13.60;8.90;;;;;;;-128.00;-1.00;-1.00;105709;1251;1004238;-74
2023/05/11 05:15:16;;;;;;;10.70;8.00;;;;;;;-128.00;-1.00;-1.00;105750;1251;1005092;-74
2023/05/11 05:17:42;;;;;;;10.50;8.30;;;;;;;-128.00;-1.00;-1.00;105736;1251;1004569;-73
2023/05/11 05:20:09;;;;;;;9.90;8.60;;;;;;;-128.00;-1.00;-1.00;105700;1251;1005401;-73
2023/05/11 05:22:35;;;;;;;13.00;9.10;;;;;;;-128.00;-1.00;-1.00;105664;1251;1004241;-73
2023/05/11 05:25:02;;;;;;;9.70;8.70;;;;;;;-128.00;-1.00;-1.00;105708;1251;1004787;-73
2023/05/11 05:27:29;;;;;;;11.80;8.70;;;;;;;-128.00;-1.00;-1.00;105570;1251;1003745;-74
2023/05/11 05:29:55;;;;;;;10.20;7.40;;;;;;;-128.00;-1.00;-1.00;105707;1251;1004099;-74
2023/05/11 05:32:22;;;;;;;11.70;6.90;;;;;;;-128.00;-1.00;-1.00;105750;1251;1003318;-74
2023/05/11 05:34:48;;;;;;;12.40;7.30;;;;;;;-128.00;-1.00;-1.00;105729;1251;1003809;-74
2023/05/11 05:37:15;;;;;;;12.30;7.60;;;;;;;-128.00;-1.00;-1.00;105695;1251;1004507;-74
2023/05/11 05:39:41;;;;;;;11.30;7.60;;;;;;;-128.00;-1.00;-1.00;105748;1251;1003745;-74
2023/05/11 05:42:08;;;;;;;7.20;6.50;;;;;;;-128.00;-1.00;-1.00;105763;1251;1003375;-73
2023/05/11 05:44:34;;;;;;;11.30;7.00;;;;;;;-128.00;-1.00;-1.00;105732;1251;1004729;-73
2023/05/11 05:47:01;;;;;;;9.10;6.40;;;;;;;-128.00;-1.00;-1.00;105514;1251;1004174;-73
2023/05/11 05:49:27;;;;;;;8.90;6.70;;;;;;;-128.00;-1.00;-1.00;105731;1251;1005057;-74
2023/05/11 05:51:54;;;;;;;6.70;6.00;;;;;;;-128.00;-1.00;-1.00;105747;1251;1004213;-74
2023/05/11 05:54:20;;;;;;;12.50;6.50;;;;;;;-128.00;-1.00;-1.00;105685;1251;1003723;-73
2023/05/11 05:56:48;;;;;;;8.80;6.60;;;;;;;-128.00;-1.00;-1.00;105753;1251;1004292;-73
2023/05/11 05:59:14;;;;;;;12.90;7.40;;;;;;;-128.00;-1.00;-1.00;105704;1251;1004741;-73
2023/05/11 06:01:45;;;;;;;11.70;7.70;;;;;;;-128.00;-1.00;-1.00;105714;1251;1003954;-73
2023/05/11 06:04:12;;;;;;;7.40;6.10;;;;;;;-128.00;-1.00;-1.00;105598;1251;1047434;-74
2023/05/11 06:06:38;;;;;;;8.70;7.60;;;;;;;-128.00;-1.00;-1.00;105607;1251;1004334;-74
2023/05/11 06:09:05;;;;;;;7.20;6.40;;;;;;;-128.00;-1.00;-1.00;105695;1251;1003835;-74
2023/05/11 06:11:32;;;;;;;9.30;6.90;;;;;;;-128.00;-1.00;-1.00;105720;1251;1003420;-74
2023/05/11 06:13:58;;;;;;;9.10;6.10;;;;;;;-128.00;-1.00;-1.00;105542;1251;1003958;-74
2023/05/11 06:16:26;;;;;;;8.10;6.80;;;;;;;-128.00;-1.00;-1.00;105736;1251;1004981;-74
2023/05/11 06:18:52;;;;;;;10.10;6.50;;;;;;;-128.00;-1.00;-1.00;105632;1251;1004883;-74
2023/05/11 06:21:19;;;;;;;7.40;6.40;;;;;;;-128.00;-1.00;-1.00;105765;1251;1004819;-74
2023/05/11 06:23:46;;;;;;;8.40;6.50;;;;;;;-128.00;-1.00;-1.00;105722;1251;1004965;-74
2023/05/11 06:26:12;;;;;;;8.40;6.70;;;;;;;-128.00;-1.00;-1.00;105715;1251;1004949;-74
2023/05/11 06:28:39;;;;;;;8.90;7.10;;;;;;;-128.00;-1.00;-1.00;105654;1251;1003695;-74
2023/05/11 06:31:05;;;;;;;11.40;7.10;;;;;;;-128.00;-1.00;-1.00;105716;1251;1004425;-74
2023/05/11 06:33:32;;;;;;;7.90;6.60;;;;;;;-128.00;-1.00;-1.00;105665;1251;1004734;-74
2023/05/11 06:36:02;;;;;;;7.90;6.70;;;;;;;-128.00;-1.00;-1.00;105728;1251;1004439;-74
2023/05/11 06:38:29;;;;;;;9.30;6.90;;;;;;;-128.00;-1.00;-1.00;105645;1251;1045858;-74
2023/05/11 06:40:56;;;;;;;8.50;6.90;;;;;;;-128.00;-1.00;-1.00;105598;1251;1003965;-74
2023/05/11 06:43:22;;;;;;;8.90;6.50;;;;;;;-128.00;-1.00;-1.00;105722;1251;1003324;-75
2023/05/11 06:45:49;;;;;;;8.30;6.70;;;;;;;-128.00;-1.00;-1.00;105709;1251;1004176;-74
2023/05/11 06:48:15;;;;;;;8.70;6.80;;;;;;;-128.00;-1.00;-1.00;105715;1251;1004233;-75
2023/05/11 06:50:42;;;;;;;9.00;7.30;;;;;;;-128.00;-1.00;-1.00;105735;1251;1004101;-74
2023/05/11 06:53:09;;;;;;;7.90;7.10;;;;;;;-128.00;-1.00;-1.00;105749;1251;1004939;-75
2023/05/11 06:55:36;;;;;;;9.20;6.90;;;;;;;-128.00;-1.00;-1.00;105719;1251;1004243;-75
2023/05/11 06:58:03;;;;;;;8.50;7.50;;;;;;;-128.00;-1.00;-1.00;105729;1251;1004003;-75
2023/05/11 07:00:29;;;;;;;9.60;7.70;;;;;;;-128.00;-1.00;-1.00;105713;1251;1004506;-74
2023/05/11 07:02:56;;;;;;;7.70;6.70;;;;;;;-128.00;-1.00;-1.00;105728;1251;1003985;-74
2023/05/11 07:05:22;;;;;;;8.10;6.60;;;;;;;-128.00;-1.00;-1.00;105611;1251;1003533;-74
2023/05/11 07:07:49;;;;;;;7.70;6.90;;;;;;;-128.00;-1.00;-1.00;105728;1251;1003752;-74
2023/05/11 07:10:15;;;;;;;10.60;7.90;;;;;;;-128.00;-1.00;-1.00;105702;1251;1005317;-73
2023/05/11 07:12:42;;;;;;;7.10;6.30;;;;;;;-128.00;-1.00;-1.00;105707;1251;1004742;-74
2023/05/11 07:15:09;;;;;;;9.20;7.30;;;;;;;-128.00;-1.00;-1.00;105698;1251;1004021;-73
2023/05/11 07:17:35;;;;;;;8.00;6.40;;;;;;;-128.00;-1.00;-1.00;105615;1251;1005874;-74
2023/05/11 07:20:02;;;;;;;8.10;6.50;;;;;;;-128.00;-1.00;-1.00;105650;1251;1004314;-74
2023/05/11 07:22:29;;;;;;;7.80;6.70;;;;;;;-128.00;-1.00;-1.00;105747;1251;1004458;-73
2023/05/11 07:24:56;;;;;;;8.10;6.60;;;;;;;-128.00;-1.00;-1.00;105718;1251;1004642;-73
2023/05/11 07:27:22;;;;;;;9.00;7.60;;;;;;;-128.00;-1.00;-1.00;105715;1251;1003961;-72
2023/05/11 07:29:49;;;;;;;8.20;6.90;;;;;;;-128.00;-1.00;-1.00;105726;1251;1004717;-72
2023/05/11 07:32:16;;;;;;;7.80;6.90;;;;;;;-128.00;-1.00;-1.00;105720;1251;1004019;-75
2023/05/11 07:34:43;;;;;;;7.30;6.60;;;;;;;-128.00;-1.00;-1.00;105681;1251;1004547;-73
2023/05/11 07:37:10;;;;;;;8.00;6.40;;;;;;;-128.00;-1.00;-1.00;105720;1251;1005372;-74
2023/05/11 07:39:37;;;;;;;8.60;7.00;;;;;;;-128.00;-1.00;-1.00;105715;1251;1006462;-74
2023/05/11 07:42:03;;;;;;;8.30;6.60;;;;;;;-128.00;-1.00;-1.00;105729;1251;1004502;-73
2023/05/11 07:44:30;;;;;;;6.20;5.60;;;;;;;-128.00;-1.00;-1.00;105723;1251;1004694;-73
2023/05/11 07:46:57;;;;;;;9.80;6.30;;;;;;;-128.00;-1.00;-1.00;105572;1251;1003988;-73
2023/05/11 07:49:23;;;;;;;6.70;5.40;;;;;;;-128.00;-1.00;-1.00;105716;1251;1004300;-73
2023/05/11 07:51:51;;;;;;;7.40;5.50;;;;;;;-128.00;-1.00;-1.00;105743;1251;1004657;-73
2023/05/11 07:54:17;;;;;;;5.80;5.20;;;;;;;-128.00;-1.00;-1.00;105739;1251;1003678;-73
2023/05/11 07:56:44;;;;;;;5.00;4.50;;;;;;;-128.00;-1.00;-1.00;105695;1251;1004565;-74
2023/05/11 07:59:10;;;;;;;5.40;4.80;;;;;;;-128.00;-1.00;-1.00;105722;1251;1004418;-72
2023/05/11 08:01:37;;;;;;;7.10;4.50;;;;;;;-128.00;-1.00;-1.00;105734;1251;1004996;-73
2023/05/11 08:04:04;;;;;;;5.00;4.50;;;;;;;-128.00;-1.00;-1.00;105732;1251;1004006;-72
2023/05/11 08:06:30;;;;;;;5.70;4.40;;;;;;;-128.00;-1.00;-1.00;105735;1251;1003634;-73
2023/05/11 08:08:56;;;;;;;10.10;5.00;;;;;;;-128.00;-1.00;-1.00;105547;1251;1005136;-73
2023/05/11 08:11:23;;;;;;;5.10;4.10;;;;;;;-128.00;-1.00;-1.00;105759;1251;1005262;-73
2023/05/11 08:13:50;;;;;;;6.80;3.30;;;;;;;-128.00;-1.00;-1.00;105714;1251;1005102;-73
2023/05/11 08:16:17;;;;;;;3.20;2.90;;;;;;;-128.00;-1.00;-1.00;105750;1251;1004327;-73
2023/05/11 08:18:43;;;;;;;6.60;3.40;;;;;;;-128.00;-1.00;-1.00;105683;1251;1004043;-74
2023/05/11 08:21:10;;;;;;;5.50;3.40;;;;;;;-128.00;-1.00;-1.00;105770;1251;1004897;-74
2023/05/11 08:23:36;;;;;;;7.00;4.00;;;;;;;-128.00;-1.00;-1.00;105742;1251;1004809;-73
2023/05/11 08:26:03;;;;;;;3.70;3.20;;;;;;;-128.00;-1.00;-1.00;105731;1251;1004817;-73
2023/05/11 08:28:30;;;;;;;3.90;3.30;;;;;;;-128.00;-1.00;-1.00;105735;1251;1003568;-74
2023/05/11 08:30:57;;;;;;;5.30;3.80;;;;;;;-128.00;-1.00;-1.00;105560;1251;1004159;-74
2023/05/11 08:33:24;;;;;;;3.10;2.80;;;;;;;-128.00;-1.00;-1.00;105759;1251;1004034;-73
2023/05/11 08:35:51;;;;;;;3.80;3.00;;;;;;;-128.00;-1.00;-1.00;105763;1251;1004330;-74
2023/05/11 08:38:18;;;;;;;5.90;3.60;;;;;;;-128.00;-1.00;-1.00;105678;1251;1003846;-74
2023/05/11 08:40:47;;;;;;;3.40;3.10;;;;;;;-128.00;-1.00;-1.00;105735;1251;1004612;-74
2023/05/11 08:43:17;;;;;;;3.80;3.40;;;;;;;-128.00;-1.00;-1.00;105683;1251;1047726;-73
2023/05/11 08:45:47;;;;;;;3.40;2.70;;;;;;;-128.00;-1.00;-1.00;105625;1251;1062416;-74
2023/05/11 08:48:16;;;;;;;7.60;4.00;;;;;;;-128.00;-1.00;-1.00;105743;1251;1056476;-74
2023/05/11 08:50:46;;;;;;;3.30;2.80;;;;;;;-128.00;-1.00;-1.00;105778;1251;1058335;-74
2023/05/11 08:53:13;;;;;;;4.20;2.70;;;;;;;-128.00;-1.00;-1.00;105738;1251;1044590;-73
2023/05/11 08:55:41;;;;;;;5.10;3.00;;;;;;;-128.00;-1.00;-1.00;105766;1251;1004118;-73
2023/05/11 08:58:09;;;;;;;6.00;3.20;;;;;;;-128.00;-1.00;-1.00;105725;1251;1003910;-73
2023/05/11 09:00:36;;;;;;;3.40;2.70;;;;;;;-128.00;-1.00;-1.00;105778;1251;1004454;-73
2023/05/11 09:03:03;;;;;;;3.50;3.00;;;;;;;-128.00;-1.00;-1.00;105625;1251;1005397;-74
2023/05/11 09:05:31;;;;;;;2.70;2.40;;;;;;;-128.00;-1.00;-1.00;105755;1251;1004787;-74
2023/05/11 09:08:03;;;;;;;3.10;2.70;;;;;;;-128.00;-1.00;-1.00;105755;1251;1004143;-73
2023/05/11 09:10:29;;;;;;;4.40;2.80;;;;;;;-128.00;-1.00;-1.00;105760;1251;1061791;-73
2023/05/11 09:12:56;;;;;;;3.50;2.60;;;;;;;-128.00;-1.00;-1.00;105699;1251;1004700;-74
2023/05/11 09:15:23;;;;;;;3.70;2.20;;;;;;;-128.00;-1.00;-1.00;105720;1251;1004440;-74
2023/05/11 09:17:49;;;;;;;2.70;2.20;;;;;;;-128.00;-1.00;-1.00;105740;1251;1003886;-73
2023/05/11 09:20:25;;;;;;;2.60;2.30;;;;;;;-128.00;-1.00;-1.00;105571;1251;1004192;-73
2023/05/11 09:22:53;;;;;;;4.80;2.40;;;;;;;-128.00;-1.00;-1.00;105635;1251;1062077;-73
2023/05/11 09:25:21;;;;;;;4.60;2.60;;;;;;;-128.00;-1.00;-1.00;105659;1251;1005043;-75
2023/05/11 09:27:48;;;;;;;5.00;2.10;;;;;;;-128.00;-1.00;-1.00;105710;1251;1004304;-73
2023/05/11 09:30:16;;;;;;;6.40;2.50;;;;;;;-128.00;-1.00;-1.00;105692;1251;1004149;-73
2023/05/11 09:32:47;;;;;;;2.60;2.40;;;;;;;-128.00;-1.00;-1.00;105693;1251;1004503;-73
2023/05/11 09:35:19;;;;;;;2.40;2.20;;;;;;;-128.00;-1.00;-1.00;105745;1251;1061183;-73
2023/05/11 09:38:11;;;;;;;6.10;3.50;;;;;;;-128.00;-1.00;-1.00;105681;1251;1055327;-73
2023/05/11 09:40:43;;;;;;;3.90;2.40;;;;;;;-128.00;-1.00;-1.00;105729;1251;1058823;-73
2023/05/11 09:43:29;;;;;;;5.00;2.10;;;;;;;-128.00;-1.00;-1.00;105704;1251;1044122;-74
2023/05/11 09:46:00;;;;;;;6.10;2.60;;;;;;;-128.00;-1.00;-1.00;105752;1251;1047641;-73
2023/05/11 09:48:30;;;;;;;5.50;2.50;;;;;;;-128.00;-1.00;-1.00;105705;1251;1061536;-74
2023/05/11 09:51:07;;;;;;;3.80;2.30;;;;;;;-128.00;-1.00;-1.00;105493;1251;1055782;-74
2023/05/11 09:53:42;;;;;;;3.90;2.50;;;;;;;-128.00;-1.00;-1.00;105747;1251;1060329;-73
2023/05/11 09:56:12;;;;;;;3.20;2.30;;;;;;;-128.00;-1.00;-1.00;105744;1251;1044532;-74
2023/05/11 09:58:56;;;;;;;3.20;2.90;;;;;;;-128.00;-1.00;-1.00;105670;1251;1047137;-73
2023/05/11 10:01:32;;;;;;;4.60;2.50;;;;;;;-128.00;-1.00;-1.00;105736;1251;1060488;-73
2023/05/11 10:04:00;;;;;;;4.50;2.80;;;;;;;-128.00;-1.00;-1.00;105682;1255;1055125;-73
2023/05/11 10:06:27;;;;;;;5.40;2.80;;;;;;;-128.00;-1.00;-1.00;105703;1251;1004236;-73
2023/05/11 10:08:54;;;;;;;6.60;3.00;;;;;;;-128.00;-1.00;-1.00;105723;1251;1003687;-72
2023/05/11 10:11:21;;;;;;;2.80;2.20;;;;;;;-128.00;-1.00;-1.00;105758;1251;1004336;-72
2023/05/11 10:13:48;;;;;;;3.10;2.20;;;;;;;-128.00;-1.00;-1.00;105721;1251;1003762;-72
2023/05/11 10:16:23;;;;;;;4.20;2.50;;;;;;;-128.00;-1.00;-1.00;105733;1251;1004704;-72
2023/05/11 10:18:50;;;;;;;3.80;2.40;;;;;;;-128.00;-1.00;-1.00;105744;1251;1059996;-73
2023/05/11 10:21:17;;;;;;;4.40;2.50;;;;;;;-128.00;-1.00;-1.00;105690;1251;1004772;-74
2023/05/11 10:23:44;;;;;;;4.40;2.40;;;;;;;-128.00;-1.00;-1.00;105755;1251;1005534;-74
2023/05/11 10:26:10;;;;;;;3.70;2.30;;;;;;;-128.00;-1.00;-1.00;105791;1251;1004365;-73
2023/05/11 10:28:38;;;;;;;2.90;2.60;;;;;;;-128.00;-1.00;-1.00;105727;1252;1004207;-73
2023/05/11 10:31:04;;;;;;;5.30;2.90;;;;;;;-128.00;-1.00;-1.00;105757;1251;1004548;-74
2023/05/11 10:33:31;;;;;;;5.70;3.10;;;;;;;-128.00;-1.00;-1.00;105717;1251;1004107;-73
2023/05/11 10:35:58;;;;;;;3.70;3.20;;;;;;;-128.00;-1.00;-1.00;105556;1251;1004266;-74
2023/05/11 10:38:26;;;;;;;3.90;3.50;;;;;;;-128.00;-1.00;-1.00;105771;1251;1004737;-73
2023/05/11 10:40:57;;;;;;;5.10;4.10;;;;;;;-128.00;-1.00;-1.00;105425;1251;1005159;-74
2023/05/11 10:43:41;;;;;;;3.30;3.10;;;;;;;-128.00;-1.00;-1.00;105532;1251;1059032;-73
2023/05/11 10:46:28;;;;;;;2.60;2.40;;;;;;;-128.00;-1.00;-1.00;105728;1251;1045253;-74
2023/05/11 10:48:57;;;;;;;10.70;3.20;;;;;;;-128.00;-1.00;-1.00;105730;1251;1047861;-74
2023/05/11 10:51:46;;;;;;;5.30;2.60;;;;;;;-128.00;-1.00;-1.00;105753;1251;1060963;-74
2023/05/11 10:54:36;;;;;;;4.30;3.00;;;;;;;-128.00;-1.00;-1.00;105766;1251;1056383;-74
2023/05/11 10:57:32;;;;;;;5.90;3.30;;;;;;;-128.00;-1.00;-1.00;105734;1251;1058860;-74
2023/05/11 11:00:29;;;;;;;3.80;3.40;;;;;;;-128.00;-1.00;-1.00;105765;1251;1044920;-74
2023/05/11 11:03:09;;;;;;;3.00;2.70;;;;;;;-128.00;-1.00;-1.00;105738;1251;1046810;-74
2023/05/11 11:05:38;;;;;;;3.60;2.70;;;;;;;-128.00;-1.00;-1.00;105785;1251;1062051;-74
2023/05/11 11:08:07;;;;;;;6.90;3.00;;;;;;;-128.00;-1.00;-1.00;105684;1251;1055780;-74
2023/05/11 11:10:40;;;;;;;7.90;3.30;;;;;;;-128.00;-1.00;-1.00;105705;1251;1059762;-74
2023/05/11 11:13:09;;;;;;;8.80;3.30;;;;;;;-128.00;-1.00;-1.00;105739;1251;1045211;-74
2023/05/11 11:15:54;;;;;;;3.10;2.50;;;;;;;-128.00;-1.00;-1.00;105721;1251;1048017;-75
2023/05/11 11:18:25;;;;;;;3.30;2.70;;;;;;;-128.00;-1.00;-1.00;105730;1251;1061312;-74
2023/05/11 11:20:55;;;;;;;4.40;2.90;;;;;;;-128.00;-1.00;-1.00;105753;1251;1054956;-74
2023/05/11 11:23:47;;;;;;;3.80;2.40;;;;;;;-128.00;-1.00;-1.00;105732;1251;1059278;-74
2023/05/11 11:26:18;;;;;;;2.60;2.40;;;;;;;-128.00;-1.00;-1.00;105580;1251;1044531;-74